createdAt,value
2023-04-07T00:01:03.292Z,98296.84
2023-04-07T00:03:30.796Z,98297.97
2023-04-07T00:05:58.297Z,98294.41
2023-04-07T00:08:25.783Z,98297.59
2023-04-07T00:10:53.150Z,98293.31
2023-04-07T00:13:20.537Z,98299.41
2023-04-07T00:15:48.045Z,98286.91
2023-04-07T00:18:15.071Z,98287.38
2023-04-07T00:20:42.469Z,98281.19
2023-04-07T00:23:10.302Z,98278.28
2023-04-07T00:25:37.625Z,98286.47
2023-04-07T00:28:04.887Z,98280.16
2023-04-07T00:30:32.416Z,98281.44
2023-04-07T00:32:59.421Z,98271.78
2023-04-07T00:35:26.881Z,98268.69
2023-04-07T00:37:54.320Z,98265.75
2023-04-07T00:40:22.654Z,98258.56
2023-04-07T00:42:50.318Z,98259.84
2023-04-07T00:45:17.650Z,98256.28
2023-04-07T00:47:44.709Z,98255.38
2023-04-07T00:50:12.215Z,98252.50
2023-04-07T00:52:40.531Z,98241.31
2023-04-07T00:55:08.054Z,98244.81
2023-04-07T00:57:35.734Z,98240.19
2023-04-07T01:00:06.601Z,98235.59
2023-04-07T01:03:02.037Z,98232.00
2023-04-07T01:05:42.829Z,98228.72
2023-04-07T01:08:57.573Z,98228.16
2023-04-07T01:11:48.313Z,98227.91
2023-04-07T01:14:19.651Z,98224.03
2023-04-07T01:16:56.060Z,98215.25
2023-04-07T01:19:40.876Z,98210.41
2023-04-07T01:22:18.102Z,98208.66
2023-04-07T01:25:33.621Z,98207.28
2023-04-07T01:28:44.363Z,98199.16
2023-04-07T01:31:13.490Z,98201.75
2023-04-07T01:33:45.917Z,98195.88
2023-04-07T01:36:13.531Z,98196.78
2023-04-07T01:38:41.273Z,98196.34
2023-04-07T01:41:10.052Z,98191.69
2023-04-07T01:43:40.082Z,98192.44
2023-04-07T01:46:08.687Z,98198.44
2023-04-07T01:48:36.895Z,98191.13
2023-04-07T01:51:06.794Z,98192.13
2023-04-07T01:53:37.850Z,98183.47
2023-04-07T01:56:06.153Z,98175.19
2023-04-07T01:58:35.316Z,98176.38
2023-04-07T02:01:04.513Z,98168.19
2023-04-07T02:03:36.900Z,98175.38
2023-04-07T02:06:09.351Z,98171.19
2023-04-07T02:08:42.495Z,98175.81
2023-04-07T02:11:13.090Z,98174.38
2023-04-07T02:13:43.497Z,98184.97
2023-04-07T02:16:13.624Z,98170.00
2023-04-07T02:18:42.287Z,98171.00
2023-04-07T02:21:11.649Z,98165.53
2023-04-07T02:23:38.673Z,98169.00
2023-04-07T02:26:06.551Z,98162.81
2023-04-07T02:28:33.907Z,98155.66
2023-04-07T02:31:01.497Z,98157.06
2023-04-07T02:33:28.807Z,98161.81
2023-04-07T02:35:56.347Z,98155.22
2023-04-07T02:38:23.758Z,98152.25
2023-04-07T02:40:50.811Z,98147.31
2023-04-07T02:43:19.350Z,98144.03
2023-04-07T02:45:47.035Z,98137.00
2023-04-07T02:48:14.438Z,98141.66
2023-04-07T02:50:42.011Z,98140.09
2023-04-07T02:53:10.323Z,98136.00
2023-04-07T02:55:37.741Z,98129.53
2023-04-07T02:58:05.596Z,98128.44
2023-04-07T03:00:43.043Z,98137.25
2023-04-07T03:03:17.129Z,98143.56
2023-04-07T03:05:56.000Z,98133.44
2023-04-07T03:08:23.402Z,98131.00
2023-04-07T03:10:50.934Z,98130.16
2023-04-07T03:13:23.121Z,98127.78
2023-04-07T03:15:50.795Z,98113.78
2023-04-07T03:18:19.265Z,98119.25
2023-04-07T03:20:48.938Z,98123.25
2023-04-07T03:23:17.696Z,98113.84
2023-04-07T03:25:46.878Z,98112.88
2023-04-07T03:28:15.557Z,98103.09
2023-04-07T03:30:43.529Z,98108.38
2023-04-07T03:33:11.146Z,98106.94
2023-04-07T03:35:38.501Z,98111.03
2023-04-07T03:38:07.100Z,98107.38
2023-04-07T03:40:35.786Z,98108.91
2023-04-07T03:43:03.312Z,98114.28
2023-04-07T03:45:30.763Z,98111.75
2023-04-07T03:47:58.296Z,98104.00
2023-04-07T03:50:25.674Z,98105.75
2023-04-07T03:53:01.470Z,98106.28
2023-04-07T03:55:32.292Z,98106.47
2023-04-07T03:58:06.899Z,98115.31
2023-04-07T04:00:36.843Z,98102.72
2023-04-07T04:03:12.594Z,98110.63
2023-04-07T04:05:59.875Z,98108.19
2023-04-07T04:08:30.699Z,98110.75
2023-04-07T04:10:57.834Z,98103.47
2023-04-07T04:13:29.156Z,98109.34
2023-04-07T04:15:59.078Z,98101.53
2023-04-07T04:18:27.477Z,98097.53
2023-04-07T04:20:56.065Z,98100.13
2023-04-07T04:23:24.084Z,98092.19
2023-04-07T04:25:53.840Z,98094.38
2023-04-07T04:28:21.369Z,98096.75
2023-04-07T04:30:49.989Z,98102.00
2023-04-07T04:33:18.129Z,98098.25
2023-04-07T04:35:55.406Z,98099.44
2023-04-07T04:38:23.432Z,98095.00
2023-04-07T04:40:56.034Z,98090.69
2023-04-07T04:43:29.386Z,98093.28
2023-04-07T04:45:57.751Z,98089.34
2023-04-07T04:48:27.340Z,98095.91
2023-04-07T04:50:54.903Z,98100.94
2023-04-07T04:53:22.515Z,98100.13
2023-04-07T04:55:55.994Z,98096.00
2023-04-07T04:58:31.246Z,98091.34
2023-04-07T05:00:59.638Z,98091.09
2023-04-07T05:03:35.656Z,98090.69
2023-04-07T05:06:10.316Z,98085.31
2023-04-07T05:08:37.790Z,98093.78
2023-04-07T05:11:06.140Z,98088.25
2023-04-07T05:13:34.740Z,98088.66
2023-04-07T05:16:04.596Z,98090.66
2023-04-07T05:18:31.709Z,98097.13
2023-04-07T05:21:01.790Z,98091.13
2023-04-07T05:23:29.580Z,98093.59
2023-04-07T05:25:57.640Z,98083.03
2023-04-07T05:28:25.305Z,98082.22
2023-04-07T05:30:54.958Z,98090.53
2023-04-07T05:33:26.922Z,98086.69
2023-04-07T05:35:54.801Z,98087.44
2023-04-07T05:38:22.307Z,98092.06
2023-04-07T05:40:50.649Z,98096.09
2023-04-07T05:43:25.477Z,98101.75
2023-04-07T05:45:52.579Z,98089.72
2023-04-07T05:48:21.741Z,98093.78
2023-04-07T05:50:49.042Z,98095.44
2023-04-07T05:53:18.833Z,98088.53
2023-04-07T05:55:47.033Z,98089.25
2023-04-07T05:58:23.442Z,98092.91
2023-04-07T06:00:54.037Z,98091.16
2023-04-07T06:03:22.160Z,98091.97
2023-04-07T06:05:59.179Z,98098.47
2023-04-07T06:08:27.190Z,98100.72
2023-04-07T06:10:54.940Z,98091.91
2023-04-07T06:13:22.280Z,98095.44
2023-04-07T06:15:49.679Z,98092.44
2023-04-07T06:18:17.111Z,98101.53
2023-04-07T06:20:44.513Z,98104.84
2023-04-07T06:23:11.897Z,98106.13
2023-04-07T06:25:38.858Z,98097.56
2023-04-07T06:28:06.578Z,98100.56
2023-04-07T06:30:34.865Z,98102.91
2023-04-07T06:33:02.224Z,98106.22
2023-04-07T06:35:29.680Z,98109.72
2023-04-07T06:37:57.144Z,98102.25
2023-04-07T06:40:24.514Z,98096.97
2023-04-07T06:42:52.036Z,98105.84
2023-04-07T06:45:28.427Z,98101.06
2023-04-07T06:47:56.042Z,98101.63
2023-04-07T06:50:23.576Z,98096.53
2023-04-07T06:52:51.158Z,98093.00
2023-04-07T06:55:18.656Z,98089.44
2023-04-07T06:57:45.895Z,98091.72
2023-04-07T07:00:16.287Z,98085.66
2023-04-07T07:02:43.664Z,98087.72
2023-04-07T07:05:11.559Z,98094.00
2023-04-07T07:07:39.202Z,98088.78
2023-04-07T07:10:10.299Z,98083.22
2023-04-07T07:12:38.007Z,98092.31
2023-04-07T07:15:05.806Z,98085.78
2023-04-07T07:17:33.201Z,98093.22
2023-04-07T07:20:00.267Z,98091.66
2023-04-07T07:22:27.615Z,98091.16
2023-04-07T07:24:54.956Z,98083.09
2023-04-07T07:27:22.395Z,98088.41
2023-04-07T07:29:49.760Z,98087.94
2023-04-07T07:32:17.241Z,98083.63
2023-04-07T07:34:44.646Z,98087.47
2023-04-07T07:37:12.513Z,98086.31
2023-04-07T07:39:39.524Z,98088.97
2023-04-07T07:42:06.952Z,98085.88
2023-04-07T07:44:34.269Z,98093.16
2023-04-07T07:47:01.507Z,98088.75
2023-04-07T07:49:28.847Z,98096.59
2023-04-07T07:51:55.837Z,98090.34
2023-04-07T07:54:23.258Z,98089.91
2023-04-07T07:56:53.014Z,98095.44
2023-04-07T07:59:21.553Z,98100.06
2023-04-07T08:01:49.115Z,98091.72
2023-04-07T08:04:16.841Z,98091.34
2023-04-07T08:06:44.538Z,98090.53
2023-04-07T08:09:11.881Z,98098.41
2023-04-07T08:11:39.235Z,98097.56
2023-04-07T08:14:08.638Z,98095.91
2023-04-07T08:16:37.868Z,98097.09
2023-04-07T08:19:05.754Z,98096.28
2023-04-07T08:21:33.206Z,98098.63
2023-04-07T08:24:01.038Z,98098.19
2023-04-07T08:26:28.469Z,98100.81
2023-04-07T08:28:56.103Z,98102.81
2023-04-07T08:31:23.706Z,98100.69
2023-04-07T08:33:54.241Z,98098.00
2023-04-07T08:36:21.547Z,98101.63
2023-04-07T08:38:48.950Z,98097.72
2023-04-07T08:41:42.459Z,98094.84
2023-04-07T08:44:12.114Z,98107.59
2023-04-07T08:46:41.146Z,98111.34
2023-04-07T08:49:10.593Z,98109.25
2023-04-07T08:51:38.931Z,98104.72
2023-04-07T08:54:13.625Z,98103.28
2023-04-07T08:56:42.364Z,98112.44
2023-04-07T08:59:18.713Z,98118.84
2023-04-07T09:01:46.646Z,98113.19
2023-04-07T09:04:14.117Z,98119.94
2023-04-07T09:06:41.117Z,98122.88
2023-04-07T09:09:08.067Z,98120.22
2023-04-07T09:11:39.096Z,98130.53
2023-04-07T09:14:06.054Z,98133.25
2023-04-07T09:16:33.488Z,98130.50
2023-04-07T09:19:00.789Z,98132.50
2023-04-07T09:21:28.751Z,98132.31
2023-04-07T09:23:56.208Z,98126.56
2023-04-07T09:26:30.344Z,98126.69
2023-04-07T09:29:02.869Z,98124.53
2023-04-07T09:31:51.317Z,98134.09
2023-04-07T09:34:28.020Z,98130.84
2023-04-07T09:36:56.885Z,98122.03
2023-04-07T09:39:24.888Z,98131.88
2023-04-07T09:41:52.562Z,98136.31
2023-04-07T09:44:23.718Z,98132.53
2023-04-07T09:46:59.209Z,98127.13
2023-04-07T09:49:26.668Z,98125.59
2023-04-07T09:52:07.491Z,98134.97
2023-04-07T09:54:39.457Z,98133.59
2023-04-07T09:57:09.359Z,98129.31
2023-04-07T09:59:38.982Z,98130.50
2023-04-07T10:02:07.647Z,98129.75
2023-04-07T10:04:35.606Z,98133.66
2023-04-07T10:07:03.755Z,98131.72
2023-04-07T10:09:31.760Z,98134.16
2023-04-07T10:12:00.080Z,98131.81
2023-04-07T10:14:31.319Z,98135.03
2023-04-07T10:17:01.162Z,98137.06
2023-04-07T10:19:33.696Z,98136.22
2023-04-07T10:22:03.275Z,98129.91
2023-04-07T10:24:33.778Z,98124.41
2023-04-07T10:27:11.590Z,98132.31
2023-04-07T10:29:43.043Z,98130.06
2023-04-07T10:32:10.497Z,98133.19
2023-04-07T10:34:55.670Z,98126.56
2023-04-07T10:37:24.287Z,98127.03
2023-04-07T10:40:31.928Z,98123.78
2023-04-07T10:43:00.184Z,98124.19
2023-04-07T10:45:49.816Z,98125.06
2023-04-07T10:48:18.455Z,98119.94
2023-04-07T10:50:48.307Z,98124.63
2023-04-07T10:53:16.654Z,98121.31
2023-04-07T10:55:46.620Z,98120.31
2023-04-07T10:58:24.126Z,98115.50
2023-04-07T11:01:03.450Z,98116.56
2023-04-07T11:03:36.048Z,98118.09
2023-04-07T11:06:12.625Z,98114.69
2023-04-07T11:08:48.761Z,98110.31
2023-04-07T11:11:41.661Z,98116.75
2023-04-07T11:14:08.786Z,98103.09
2023-04-07T11:16:41.869Z,98108.25
2023-04-07T11:19:09.509Z,98108.25
2023-04-07T11:21:36.923Z,98106.03
2023-04-07T11:24:04.414Z,98094.34
2023-04-07T11:26:39.167Z,98093.78
2023-04-07T11:29:06.234Z,98095.59
2023-04-07T11:31:33.380Z,98099.38
2023-04-07T11:34:05.127Z,98096.47
2023-04-07T11:36:40.015Z,98100.28
2023-04-07T11:39:21.863Z,98095.53
2023-04-07T11:41:50.721Z,98100.22
2023-04-07T11:44:17.797Z,98102.09
2023-04-07T11:46:59.791Z,98100.78
2023-04-07T11:49:28.608Z,98104.34
2023-04-07T11:52:01.168Z,98108.16
2023-04-07T11:54:47.580Z,98102.50
2023-04-07T11:57:16.439Z,98103.13
2023-04-07T11:59:43.589Z,98098.25
2023-04-07T12:02:11.074Z,98108.66
2023-04-07T12:04:40.745Z,98101.63
2023-04-07T12:07:11.973Z,98100.34
2023-04-07T12:09:40.000Z,98110.56
2023-04-07T12:12:08.258Z,98099.25
2023-04-07T12:14:36.061Z,98105.19
2023-04-07T12:17:04.497Z,98096.41
2023-04-07T12:19:35.613Z,98098.66
2023-04-07T12:22:03.341Z,98097.50
2023-04-07T12:24:32.273Z,98103.69
2023-04-07T12:26:59.928Z,98109.97
2023-04-07T12:29:27.038Z,98106.34
2023-04-07T12:31:54.057Z,98113.25
2023-04-07T12:34:24.056Z,98111.56
2023-04-07T12:36:51.629Z,98110.47
2023-04-07T12:39:19.045Z,98111.19
2023-04-07T12:41:47.568Z,98113.44
2023-04-07T12:44:15.729Z,98121.31
2023-04-07T12:46:43.341Z,98114.00
2023-04-07T12:49:11.010Z,98107.81
2023-04-07T12:51:39.982Z,98118.47
2023-04-07T12:54:07.670Z,98119.78
2023-04-07T12:56:34.613Z,98113.53
2023-04-07T12:59:02.268Z,98107.44
2023-04-07T13:01:29.371Z,98111.25
2023-04-07T13:03:57.016Z,98110.44
2023-04-07T13:06:24.463Z,98111.63
2023-04-07T13:08:51.784Z,98119.31
2023-04-07T13:11:18.892Z,98119.25
2023-04-07T13:13:46.058Z,98110.25
2023-04-07T13:16:13.196Z,98117.84
2023-04-07T13:18:40.272Z,98121.56
2023-04-07T13:21:40.569Z,98118.09
2023-04-07T13:23:54.431Z,98116.66
2023-04-07T13:26:22.369Z,98114.22
2023-04-07T13:28:49.372Z,98119.72
2023-04-07T13:31:18.011Z,98114.00
2023-04-07T13:33:45.860Z,98119.53
2023-04-07T13:36:13.277Z,98124.00
2023-04-07T13:38:42.368Z,98122.34
2023-04-07T13:41:09.883Z,98120.56
2023-04-07T13:43:36.884Z,98119.31
2023-04-07T13:46:07.819Z,98118.09
2023-04-07T13:48:39.256Z,98112.13
2023-04-07T13:51:06.387Z,98114.81
2023-04-07T13:53:33.387Z,98111.88
2023-04-07T13:56:01.040Z,98111.50
2023-04-07T13:58:29.546Z,98118.28
2023-04-07T14:00:58.821Z,98122.38
2023-04-07T14:03:26.178Z,98116.44
2023-04-07T14:05:53.573Z,98121.38
2023-04-07T14:08:23.654Z,98121.94
2023-04-07T14:10:51.353Z,98116.66
2023-04-07T14:13:18.350Z,98105.97
2023-04-07T14:15:46.029Z,98110.50
2023-04-07T14:18:13.141Z,98109.28
2023-04-07T14:20:40.526Z,98105.41
2023-04-07T14:23:07.878Z,98095.03
2023-04-07T14:25:35.613Z,98098.19
2023-04-07T14:28:02.847Z,98099.19
2023-04-07T14:30:30.873Z,98095.84
2023-04-07T14:32:57.880Z,98090.19
2023-04-07T14:35:25.652Z,98104.66
2023-04-07T14:37:52.810Z,98091.38
2023-04-07T14:40:21.361Z,98098.56
2023-04-07T14:42:49.183Z,98096.41
2023-04-07T14:45:17.840Z,98101.63
2023-04-07T14:47:44.922Z,98104.56
2023-04-07T14:50:12.640Z,98100.28
2023-04-07T14:52:40.315Z,98106.03
2023-04-07T14:55:07.897Z,98101.28
2023-04-07T14:57:34.855Z,98103.63
2023-04-07T15:00:03.707Z,98102.34
2023-04-07T15:02:32.677Z,98104.78
2023-04-07T15:05:00.661Z,98106.81
2023-04-07T15:07:27.761Z,98105.59
2023-04-07T15:09:55.204Z,98109.31
2023-04-07T15:12:22.571Z,98125.63
2023-04-07T15:14:52.534Z,98122.34
2023-04-07T15:17:23.687Z,98132.81
2023-04-07T15:19:57.553Z,98128.50
2023-04-07T15:22:24.918Z,98133.97
2023-04-07T15:24:52.590Z,98136.88
2023-04-07T15:27:19.691Z,98129.72
2023-04-07T15:29:47.122Z,98130.72
2023-04-07T15:32:14.096Z,98134.41
2023-04-07T15:34:41.075Z,98138.06
2023-04-07T15:37:08.442Z,98136.06
2023-04-07T15:39:35.750Z,98140.16
2023-04-07T15:42:03.185Z,98135.66
2023-04-07T15:44:39.327Z,98145.47
2023-04-07T15:47:07.442Z,98142.53
2023-04-07T15:49:37.212Z,98142.59
2023-04-07T15:52:08.091Z,98143.94
2023-04-07T15:54:35.244Z,98142.59
2023-04-07T15:57:02.717Z,98147.09
2023-04-07T15:59:30.985Z,98140.44
2023-04-07T16:01:58.690Z,98140.06
2023-04-07T16:04:26.173Z,98149.75
2023-04-07T16:06:53.436Z,98146.41
2023-04-07T16:09:21.133Z,98143.69
2023-04-07T16:11:48.505Z,98153.03
2023-04-07T16:14:15.650Z,98146.28
2023-04-07T16:16:44.699Z,98144.59
2023-04-07T16:19:16.506Z,98146.44
2023-04-07T16:21:43.566Z,98158.72
2023-04-07T16:24:10.906Z,98160.91
2023-04-07T16:26:38.227Z,98163.06
2023-04-07T16:29:05.163Z,98157.34
2023-04-07T16:31:32.539Z,98163.22
2023-04-07T16:33:59.899Z,98156.84
2023-04-07T16:36:26.888Z,98166.47
2023-04-07T16:38:54.315Z,98173.25
2023-04-07T16:41:21.778Z,98172.44
2023-04-07T16:43:49.177Z,98174.47
2023-04-07T16:46:16.346Z,98172.22
2023-04-07T16:48:43.804Z,98166.22
2023-04-07T16:51:15.717Z,98173.53
2023-04-07T16:53:42.803Z,98179.38
2023-04-07T16:56:21.392Z,98177.38
2023-04-07T16:58:49.352Z,98183.47
2023-04-07T17:01:17.288Z,98182.47
2023-04-07T17:03:47.265Z,98181.97
2023-04-07T17:06:16.458Z,98189.59
2023-04-07T17:08:44.003Z,98191.41
2023-04-07T17:11:12.362Z,98191.69
2023-04-07T17:13:40.249Z,98193.13
2023-04-07T17:16:07.931Z,98201.00
2023-04-07T17:18:35.005Z,98203.47
2023-04-07T17:21:02.169Z,98205.56
2023-04-07T17:23:29.153Z,98204.53
2023-04-07T17:29:49.648Z,98208.78
2023-04-07T17:32:17.025Z,98216.19
2023-04-07T17:34:44.127Z,98220.34
2023-04-07T17:37:11.504Z,98219.09
2023-04-07T17:39:38.887Z,98222.38
2023-04-07T17:42:06.340Z,98222.47
2023-04-07T17:44:35.602Z,98236.25
2023-04-07T17:47:02.651Z,98233.84
2023-04-07T17:49:29.670Z,98235.25
2023-04-07T17:51:56.627Z,98235.66
2023-04-07T17:54:23.624Z,98238.94
2023-04-07T17:56:50.873Z,98244.47
2023-04-07T17:59:17.893Z,98241.94
2023-04-07T18:01:45.413Z,98244.63
2023-04-07T18:04:13.288Z,98246.06
2023-04-07T18:06:40.288Z,98250.63
2023-04-07T18:09:07.600Z,98251.63
2023-04-07T18:11:40.024Z,98252.22
2023-04-07T18:14:07.315Z,98260.78
2023-04-07T18:16:35.336Z,98267.59
2023-04-07T18:19:03.281Z,98276.16
2023-04-07T18:21:31.217Z,98274.84
2023-04-07T18:23:58.784Z,98274.63
2023-04-07T18:26:26.423Z,98282.66
2023-04-07T18:28:53.505Z,98289.03
2023-04-07T18:31:20.677Z,98285.25
2023-04-07T18:33:47.920Z,98289.38
2023-04-07T18:36:16.515Z,98306.91
2023-04-07T18:38:43.597Z,98306.78
2023-04-07T18:41:12.060Z,98309.44
2023-04-07T18:43:39.462Z,98317.16
2023-04-07T18:46:09.222Z,98321.91
2023-04-07T18:48:36.615Z,98321.19
2023-04-07T18:51:04.361Z,98323.63
2023-04-07T18:53:31.743Z,98332.66
2023-04-07T18:55:59.164Z,98331.38
2023-04-07T18:58:26.506Z,98332.09
2023-04-07T19:00:54.730Z,98343.31
2023-04-07T19:03:22.469Z,98338.88
2023-04-07T19:05:52.292Z,98347.78
2023-04-07T19:08:20.111Z,98349.19
2023-04-07T19:10:48.900Z,98351.06
2023-04-07T19:13:18.655Z,98351.97
2023-04-07T19:15:46.670Z,98366.31
2023-04-07T19:18:13.768Z,98358.03
2023-04-07T19:20:41.078Z,98361.94
2023-04-07T19:23:08.137Z,98364.41
2023-04-07T19:25:35.660Z,98366.19
2023-04-07T19:28:03.509Z,98367.38
2023-04-07T19:30:30.587Z,98373.41
2023-04-07T19:32:58.071Z,98374.91
2023-04-07T19:35:25.964Z,98373.31
2023-04-07T19:37:53.806Z,98371.63
2023-04-07T19:40:21.229Z,98375.38
2023-04-07T19:42:49.437Z,98381.06
2023-04-07T19:45:16.828Z,98386.38
2023-04-07T19:47:44.508Z,98389.88
2023-04-07T19:50:12.064Z,98383.50
2023-04-07T19:52:39.345Z,98388.59
2023-04-07T19:55:09.518Z,98393.78
2023-04-07T19:57:38.667Z,98383.38
2023-04-07T20:00:07.758Z,98387.59
2023-04-07T20:02:36.057Z,98383.75
2023-04-07T20:05:03.877Z,98384.28
2023-04-07T20:07:31.872Z,98391.47
2023-04-07T20:10:00.025Z,98397.22
2023-04-07T20:12:27.664Z,98396.34
2023-04-07T20:14:54.725Z,98395.00
2023-04-07T20:17:22.157Z,98404.66
2023-04-07T20:19:49.508Z,98401.44
2023-04-07T20:22:17.048Z,98398.97
2023-04-07T20:24:44.401Z,98398.91
2023-04-07T20:27:11.781Z,98394.75
2023-04-07T20:29:39.313Z,98400.53
2023-04-07T20:32:06.643Z,98398.19
2023-04-07T20:34:33.982Z,98395.94
2023-04-07T20:37:01.591Z,98403.97
2023-04-07T20:39:30.856Z,98400.06
2023-04-07T20:42:00.433Z,98401.09
2023-04-07T20:44:29.239Z,98409.56
2023-04-07T20:46:56.354Z,98402.47
2023-04-07T20:49:23.933Z,98409.81
2023-04-07T20:51:51.823Z,98407.78
2023-04-07T20:54:19.470Z,98406.13
2023-04-07T20:56:47.498Z,98412.41
2023-04-07T20:59:14.892Z,98412.22
2023-04-07T21:01:42.322Z,98412.34
2023-04-07T21:04:10.126Z,98417.06
2023-04-07T21:06:37.941Z,98418.28
2023-04-07T21:09:07.165Z,98417.06
2023-04-07T21:11:35.038Z,98422.56
2023-04-07T21:14:02.995Z,98422.03
2023-04-07T21:16:30.772Z,98423.66
2023-04-07T21:18:57.806Z,98419.34
2023-04-07T21:21:24.829Z,98422.16
2023-04-07T21:23:52.178Z,98422.06
2023-04-07T21:26:19.659Z,98432.69
2023-04-07T21:28:47.102Z,98434.28
2023-04-07T21:31:25.256Z,98427.06
2023-04-07T21:33:53.482Z,98427.81
2023-04-07T21:36:21.320Z,98427.22
2023-04-07T21:38:49.771Z,98429.66
2023-04-07T21:41:17.284Z,98432.75
2023-04-07T21:43:44.279Z,98432.94
2023-04-07T21:46:11.971Z,98431.09
2023-04-07T21:48:38.899Z,98438.34
2023-04-07T21:51:06.426Z,98425.38
2023-04-07T21:53:35.973Z,98437.19
2023-04-07T21:56:03.928Z,98429.88
2023-04-07T21:58:31.072Z,98436.47
2023-04-07T22:00:58.112Z,98436.91
2023-04-07T22:03:25.433Z,98429.38
2023-04-07T22:05:52.894Z,98434.84
2023-04-07T22:08:19.963Z,98433.28
2023-04-07T22:10:47.447Z,98437.47
2023-04-07T22:13:14.427Z,98442.72
2023-04-07T22:15:41.365Z,98444.88
2023-04-07T22:18:09.298Z,98442.16
2023-04-07T22:20:36.707Z,98435.19
2023-04-07T22:23:04.070Z,98438.63
2023-04-07T22:25:31.133Z,98440.31
2023-04-07T22:27:59.184Z,98440.75
2023-04-07T22:30:26.822Z,98441.75
2023-04-07T22:32:54.466Z,98447.09
2023-04-07T22:35:21.868Z,98445.38
2023-04-07T22:37:48.904Z,98451.13
2023-04-07T22:40:16.074Z,98448.09
2023-04-07T22:42:43.619Z,98441.13
2023-04-07T22:45:11.134Z,98443.03
2023-04-07T22:47:38.796Z,98447.06
2023-04-07T22:50:06.671Z,98450.75
2023-04-07T22:52:33.629Z,98455.19
2023-04-07T22:55:00.699Z,98451.59
2023-04-07T22:57:28.133Z,98465.09
2023-04-07T22:59:55.713Z,98456.97
2023-04-07T23:02:23.390Z,98461.09
2023-04-07T23:04:51.265Z,98460.91
2023-04-07T23:07:18.629Z,98452.78
2023-04-07T23:09:46.340Z,98467.03
2023-04-07T23:12:13.800Z,98469.19
2023-04-07T23:14:41.182Z,98470.56
2023-04-07T23:17:09.037Z,98469.72
2023-04-07T23:19:36.622Z,98477.59
2023-04-07T23:22:04.029Z,98472.16
2023-04-07T23:24:31.407Z,98472.47
2023-04-07T23:26:58.856Z,98478.66
2023-04-07T23:29:26.271Z,98480.03
2023-04-07T23:31:53.860Z,98482.94
2023-04-07T23:34:21.621Z,98476.56
2023-04-07T23:36:49.081Z,98482.94
2023-04-07T23:39:16.497Z,98487.09
2023-04-07T23:41:44.039Z,98489.59
2023-04-07T23:44:11.786Z,98491.34
2023-04-07T23:46:39.340Z,98492.88
2023-04-07T23:49:06.869Z,98495.66
2023-04-07T23:51:34.575Z,98488.78
2023-04-07T23:54:01.985Z,98493.00
2023-04-07T23:56:29.814Z,98485.50
2023-04-07T23:58:57.384Z,98483.28
